sensor_id;sensor_type;location;lat;lon;timestamp;P1;durP1;ratioP1;P2;durP2;ratioP2
52208;SDS011;38507;53.132;6.394;2023-02-28T00:02:19;10.93;;;3.40;;
52208;SDS011;38507;53.132;6.394;2023-02-28T00:04:45;9.88;;;3.40;;
52208;SDS011;38507;53.132;6.394;2023-02-28T00:07:17;10.43;;;3.45;;
52208;SDS011;38507;53.132;6.394;2023-02-28T00:09:44;8.88;;;3.55;;
52208;SDS011;38507;53.132;6.394;2023-02-28T00:12:09;13.07;;;2.97;;
52208;SDS011;38507;53.132;6.394;2023-02-28T00:14:38;9.65;;;3.40;;
52208;SDS011;38507;53.132;6.394;2023-02-28T00:17:03;8.88;;;3.15;;
52208;SDS011;38507;53.132;6.394;2023-02-28T00:19:29;8.35;;;3.03;;
52208;SDS011;38507;53.132;6.394;2023-02-28T00:21:54;13.52;;;3.63;;
52208;SDS011;38507;53.132;6.394;2023-02-28T00:24:20;10.57;;;3.55;;
52208;SDS011;38507;53.132;6.394;2023-02-28T00:26:46;9.60;;;3.05;;
52208;SDS011;38507;53.132;6.394;2023-02-28T00:29:11;9.10;;;3.45;;
52208;SDS011;38507;53.132;6.394;2023-02-28T00:31:37;13.25;;;3.80;;
52208;SDS011;38507;53.132;6.394;2023-02-28T00:34:02;9.77;;;3.67;;
52208;SDS011;38507;53.132;6.394;2023-02-28T00:36:28;12.95;;;3.70;;
52208;SDS011;38507;53.132;6.394;2023-02-28T00:38:54;10.68;;;3.10;;
52208;SDS011;38507;53.132;6.394;2023-02-28T00:41:19;9.93;;;3.22;;
52208;SDS011;38507;53.132;6.394;2023-02-28T00:43:45;8.57;;;3.53;;
52208;SDS011;38507;53.132;6.394;2023-02-28T00:46:11;14.20;;;3.67;;
52208;SDS011;38507;53.132;6.394;2023-02-28T00:48:36;11.98;;;3.30;;
52208;SDS011;38507;53.132;6.394;2023-02-28T00:51:02;7.97;;;3.08;;
52208;SDS011;38507;53.132;6.394;2023-02-28T00:53:28;10.73;;;3.53;;
52208;SDS011;38507;53.132;6.394;2023-02-28T00:55:54;10.73;;;2.95;;
52208;SDS011;38507;53.132;6.394;2023-02-28T00:58:20;11.18;;;3.30;;
52208;SDS011;38507;53.132;6.394;2023-02-28T01:00:45;10.52;;;3.10;;
52208;SDS011;38507;53.132;6.394;2023-02-28T01:03:17;10.35;;;3.40;;
52208;SDS011;38507;53.132;6.394;2023-02-28T01:05:43;8.15;;;3.20;;
52208;SDS011;38507;53.132;6.394;2023-02-28T01:08:09;10.63;;;4.00;;
52208;SDS011;38507;53.132;6.394;2023-02-28T01:10:35;12.43;;;3.42;;
52208;SDS011;38507;53.132;6.394;2023-02-28T01:13:02;7.40;;;2.85;;
52208;SDS011;38507;53.132;6.394;2023-02-28T01:15:28;10.52;;;3.63;;
52208;SDS011;38507;53.132;6.394;2023-02-28T01:17:53;10.73;;;3.15;;
52208;SDS011;38507;53.132;6.394;2023-02-28T01:20:19;14.75;;;3.40;;
52208;SDS011;38507;53.132;6.394;2023-02-28T01:22:45;9.63;;;3.67;;
52208;SDS011;38507;53.132;6.394;2023-02-28T01:25:11;5.88;;;2.92;;
52208;SDS011;38507;53.132;6.394;2023-02-28T01:27:37;6.95;;;2.88;;
52208;SDS011;38507;53.132;6.394;2023-02-28T01:30:04;6.82;;;2.72;;
52208;SDS011;38507;53.132;6.394;2023-02-28T01:32:31;9.43;;;3.20;;
52208;SDS011;38507;53.132;6.394;2023-02-28T01:34:57;7.72;;;3.28;;
52208;SDS011;38507;53.132;6.394;2023-02-28T01:37:22;8.18;;;3.13;;
52208;SDS011;38507;53.132;6.394;2023-02-28T01:39:48;9.70;;;3.67;;
52208;SDS011;38507;53.132;6.394;2023-02-28T01:42:14;10.63;;;4.75;;
52208;SDS011;38507;53.132;6.394;2023-02-28T01:47:43;13.13;;;4.93;;
52208;SDS011;38507;53.132;6.394;2023-02-28T01:50:12;14.10;;;4.85;;
52208;SDS011;38507;53.132;6.394;2023-02-28T01:52:41;14.15;;;4.80;;
52208;SDS011;38507;53.132;6.394;2023-02-28T01:55:08;16.63;;;5.43;;
52208;SDS011;38507;53.132;6.394;2023-02-28T01:57:39;11.70;;;5.20;;
52208;SDS011;38507;53.132;6.394;2023-02-28T02:00:11;12.45;;;4.60;;
52208;SDS011;38507;53.132;6.394;2023-02-28T02:02:43;15.32;;;5.32;;
52208;SDS011;38507;53.132;6.394;2023-02-28T02:05:14;12.10;;;4.95;;
52208;SDS011;38507;53.132;6.394;2023-02-28T02:07:45;10.90;;;4.50;;
52208;SDS011;38507;53.132;6.394;2023-02-28T02:10:18;16.90;;;5.03;;
52208;SDS011;38507;53.132;6.394;2023-02-28T02:18:34;12.23;;;4.95;;
52208;SDS011;38507;53.132;6.394;2023-02-28T02:21:33;13.85;;;5.53;;
52208;SDS011;38507;53.132;6.394;2023-02-28T02:35:44;17.15;;;5.82;;
52208;SDS011;38507;53.132;6.394;2023-02-28T02:43:19;12.70;;;5.22;;
52208;SDS011;38507;53.132;6.394;2023-02-28T02:45:49;14.13;;;4.80;;
52208;SDS011;38507;53.132;6.394;2023-02-28T02:48:19;11.52;;;4.30;;
52208;SDS011;38507;53.132;6.394;2023-02-28T02:50:49;8.30;;;4.10;;
52208;SDS011;38507;53.132;6.394;2023-02-28T02:53:19;12.98;;;4.28;;
52208;SDS011;38507;53.132;6.394;2023-02-28T02:55:50;12.68;;;3.80;;
52208;SDS011;38507;53.132;6.394;2023-02-28T02:58:20;9.65;;;3.90;;
52208;SDS011;38507;53.132;6.394;2023-02-28T03:00:56;12.85;;;3.83;;
52208;SDS011;38507;53.132;6.394;2023-02-28T03:03:25;9.88;;;3.80;;
52208;SDS011;38507;53.132;6.394;2023-02-28T03:05:59;11.52;;;3.55;;
52208;SDS011;38507;53.132;6.394;2023-02-28T03:08:26;7.82;;;3.15;;
52208;SDS011;38507;53.132;6.394;2023-02-28T03:10:56;11.32;;;3.67;;
52208;SDS011;38507;53.132;6.394;2023-02-28T03:32:23;11.60;;;4.10;;
52208;SDS011;38507;53.132;6.394;2023-02-28T03:35:13;8.73;;;3.80;;
52208;SDS011;38507;53.132;6.394;2023-02-28T03:37:47;12.05;;;4.53;;
52208;SDS011;38507;53.132;6.394;2023-02-28T03:40:30;10.48;;;3.50;;
52208;SDS011;38507;53.132;6.394;2023-02-28T03:43:02;8.93;;;3.92;;
52208;SDS011;38507;53.132;6.394;2023-02-28T03:48:07;11.93;;;5.65;;
52208;SDS011;38507;53.132;6.394;2023-02-28T03:50:44;14.77;;;6.13;;
52208;SDS011;38507;53.132;6.394;2023-02-28T03:55:42;16.13;;;6.85;;
52208;SDS011;38507;53.132;6.394;2023-02-28T03:58:13;11.75;;;6.13;;
52208;SDS011;38507;53.132;6.394;2023-02-28T04:00:46;11.38;;;6.00;;
52208;SDS011;38507;53.132;6.394;2023-02-28T04:03:15;12.38;;;6.28;;
52208;SDS011;38507;53.132;6.394;2023-02-28T04:05:49;10.27;;;5.82;;
52208;SDS011;38507;53.132;6.394;2023-02-28T04:08:18;9.70;;;5.75;;
52208;SDS011;38507;53.132;6.394;2023-02-28T04:10:44;9.77;;;5.85;;
52208;SDS011;38507;53.132;6.394;2023-02-28T04:13:15;10.35;;;5.88;;
52208;SDS011;38507;53.132;6.394;2023-02-28T04:15:41;12.38;;;5.60;;
52208;SDS011;38507;53.132;6.394;2023-02-28T04:18:07;10.85;;;5.38;;
52208;SDS011;38507;53.132;6.394;2023-02-28T04:20:33;8.02;;;4.90;;
52208;SDS011;38507;53.132;6.394;2023-02-28T04:22:58;10.85;;;5.07;;
52208;SDS011;38507;53.132;6.394;2023-02-28T04:25:24;9.23;;;4.50;;
52208;SDS011;38507;53.132;6.394;2023-02-28T04:27:50;7.63;;;4.53;;
52208;SDS011;38507;53.132;6.394;2023-02-28T04:30:15;7.60;;;4.97;;
52208;SDS011;38507;53.132;6.394;2023-02-28T04:32:41;7.63;;;3.70;;
52208;SDS011;38507;53.132;6.394;2023-02-28T04:35:07;8.15;;;4.00;;
52208;SDS011;38507;53.132;6.394;2023-02-28T04:37:33;9.80;;;4.30;;
52208;SDS011;38507;53.132;6.394;2023-02-28T04:40:00;8.43;;;4.40;;
52208;SDS011;38507;53.132;6.394;2023-02-28T04:42:26;8.70;;;3.90;;
52208;SDS011;38507;53.132;6.394;2023-02-28T04:44:52;9.60;;;4.53;;
52208;SDS011;38507;53.132;6.394;2023-02-28T04:47:17;8.20;;;4.20;;
52208;SDS011;38507;53.132;6.394;2023-02-28T04:49:43;9.52;;;3.65;;
52208;SDS011;38507;53.132;6.394;2023-02-28T04:52:08;9.27;;;4.15;;
52208;SDS011;38507;53.132;6.394;2023-02-28T04:54:35;10.18;;;4.10;;
52208;SDS011;38507;53.132;6.394;2023-02-28T04:57:03;8.50;;;4.38;;
52208;SDS011;38507;53.132;6.394;2023-02-28T04:59:29;7.55;;;4.18;;
52208;SDS011;38507;53.132;6.394;2023-02-28T05:01:55;6.90;;;4.47;;
52208;SDS011;38507;53.132;6.394;2023-02-28T05:04:20;8.32;;;4.53;;
52208;SDS011;38507;53.132;6.394;2023-02-28T05:06:46;11.27;;;5.05;;
52208;SDS011;38507;53.132;6.394;2023-02-28T05:09:11;11.38;;;5.43;;
52208;SDS011;38507;53.132;6.394;2023-02-28T05:11:37;9.32;;;5.63;;
52208;SDS011;38507;53.132;6.394;2023-02-28T05:14:05;12.32;;;6.03;;
52208;SDS011;38507;53.132;6.394;2023-02-28T05:16:36;11.75;;;6.00;;
52208;SDS011;38507;53.132;6.394;2023-02-28T05:19:02;11.35;;;5.40;;
52208;SDS011;38507;53.132;6.394;2023-02-28T05:21:32;7.43;;;5.20;;
52208;SDS011;38507;53.132;6.394;2023-02-28T05:24:00;13.18;;;6.72;;
52208;SDS011;38507;53.132;6.394;2023-02-28T05:26:28;11.45;;;5.90;;
52208;SDS011;38507;53.132;6.394;2023-02-28T05:28:54;9.63;;;5.40;;
52208;SDS011;38507;53.132;6.394;2023-02-28T05:31:20;10.93;;;6.05;;
52208;SDS011;38507;53.132;6.394;2023-02-28T05:33:46;10.55;;;5.30;;
52208;SDS011;38507;53.132;6.394;2023-02-28T05:36:12;10.52;;;6.28;;
52208;SDS011;38507;53.132;6.394;2023-02-28T05:38:38;11.70;;;6.10;;
52208;SDS011;38507;53.132;6.394;2023-02-28T05:41:10;9.55;;;6.18;;
52208;SDS011;38507;53.132;6.394;2023-02-28T05:43:36;11.93;;;6.13;;
52208;SDS011;38507;53.132;6.394;2023-02-28T05:46:06;12.88;;;6.07;;
52208;SDS011;38507;53.132;6.394;2023-02-28T05:48:33;10.00;;;6.30;;
52208;SDS011;38507;53.132;6.394;2023-02-28T05:51:00;13.50;;;6.95;;
52208;SDS011;38507;53.132;6.394;2023-02-28T05:53:26;12.45;;;5.95;;
52208;SDS011;38507;53.132;6.394;2023-02-28T05:55:52;11.68;;;6.80;;
52208;SDS011;38507;53.132;6.394;2023-02-28T05:58:18;12.13;;;6.55;;
52208;SDS011;38507;53.132;6.394;2023-02-28T06:00:43;11.45;;;6.75;;
52208;SDS011;38507;53.132;6.394;2023-02-28T06:03:09;11.50;;;6.90;;
52208;SDS011;38507;53.132;6.394;2023-02-28T06:05:35;10.77;;;6.57;;
52208;SDS011;38507;53.132;6.394;2023-02-28T06:08:00;11.55;;;6.70;;
52208;SDS011;38507;53.132;6.394;2023-02-28T06:10:26;13.30;;;7.32;;
52208;SDS011;38507;53.132;6.394;2023-02-28T06:12:51;12.45;;;7.85;;
52208;SDS011;38507;53.132;6.394;2023-02-28T06:15:17;16.25;;;8.73;;
52208;SDS011;38507;53.132;6.394;2023-02-28T06:17:43;12.90;;;8.45;;
52208;SDS011;38507;53.132;6.394;2023-02-28T06:20:10;12.00;;;7.55;;
52208;SDS011;38507;53.132;6.394;2023-02-28T06:22:37;12.68;;;7.90;;
52208;SDS011;38507;53.132;6.394;2023-02-28T06:25:04;16.08;;;8.25;;
52208;SDS011;38507;53.132;6.394;2023-02-28T06:27:32;12.75;;;8.52;;
52208;SDS011;38507;53.132;6.394;2023-02-28T06:29:58;12.10;;;8.05;;
52208;SDS011;38507;53.132;6.394;2023-02-28T06:32:24;12.20;;;7.88;;
52208;SDS011;38507;53.132;6.394;2023-02-28T06:34:49;12.70;;;7.55;;
52208;SDS011;38507;53.132;6.394;2023-02-28T06:37:16;11.27;;;7.78;;
52208;SDS011;38507;53.132;6.394;2023-02-28T06:39:42;13.55;;;7.72;;
52208;SDS011;38507;53.132;6.394;2023-02-28T06:42:08;11.88;;;8.20;;
52208;SDS011;38507;53.132;6.394;2023-02-28T06:44:34;15.75;;;8.75;;
52208;SDS011;38507;53.132;6.394;2023-02-28T06:47:03;14.25;;;8.65;;
52208;SDS011;38507;53.132;6.394;2023-02-28T06:49:30;14.38;;;8.07;;
52208;SDS011;38507;53.132;6.394;2023-02-28T06:51:57;14.65;;;8.20;;
52208;SDS011;38507;53.132;6.394;2023-02-28T06:54:23;18.27;;;8.95;;
52208;SDS011;38507;53.132;6.394;2023-02-28T06:56:49;15.13;;;9.27;;
52208;SDS011;38507;53.132;6.394;2023-02-28T06:59:14;13.45;;;8.40;;
52208;SDS011;38507;53.132;6.394;2023-02-28T07:01:41;17.20;;;10.13;;
52208;SDS011;38507;53.132;6.394;2023-02-28T07:04:06;14.60;;;8.55;;
52208;SDS011;38507;53.132;6.394;2023-02-28T07:06:32;17.48;;;8.80;;
52208;SDS011;38507;53.132;6.394;2023-02-28T07:08:58;14.77;;;8.70;;
52208;SDS011;38507;53.132;6.394;2023-02-28T07:11:25;15.85;;;8.77;;
52208;SDS011;38507;53.132;6.394;2023-02-28T07:13:52;14.73;;;7.90;;
52208;SDS011;38507;53.132;6.394;2023-02-28T07:16:19;12.18;;;8.27;;
52208;SDS011;38507;53.132;6.394;2023-02-28T07:18:45;15.82;;;8.25;;
52208;SDS011;38507;53.132;6.394;2023-02-28T07:21:11;16.40;;;9.43;;
52208;SDS011;38507;53.132;6.394;2023-02-28T07:23:37;15.00;;;9.30;;
52208;SDS011;38507;53.132;6.394;2023-02-28T07:26:03;14.73;;;8.35;;
52208;SDS011;38507;53.132;6.394;2023-02-28T07:28:36;13.50;;;8.40;;
52208;SDS011;38507;53.132;6.394;2023-02-28T07:31:05;17.60;;;8.63;;
52208;SDS011;38507;53.132;6.394;2023-02-28T07:33:31;12.30;;;8.27;;
52208;SDS011;38507;53.132;6.394;2023-02-28T07:36:03;16.67;;;8.75;;
52208;SDS011;38507;53.132;6.394;2023-02-28T07:38:33;15.43;;;9.35;;
52208;SDS011;38507;53.132;6.394;2023-02-28T07:41:00;14.52;;;8.80;;
52208;SDS011;38507;53.132;6.394;2023-02-28T07:43:29;15.15;;;9.43;;
52208;SDS011;38507;53.132;6.394;2023-02-28T07:45:55;13.38;;;8.52;;
52208;SDS011;38507;53.132;6.394;2023-02-28T07:48:21;17.45;;;9.18;;
52208;SDS011;38507;53.132;6.394;2023-02-28T07:50:53;13.95;;;8.85;;
52208;SDS011;38507;53.132;6.394;2023-02-28T07:53:23;15.73;;;8.95;;
52208;SDS011;38507;53.132;6.394;2023-02-28T07:55:49;16.00;;;9.85;;
52208;SDS011;38507;53.132;6.394;2023-02-28T07:58:14;19.98;;;8.52;;
52208;SDS011;38507;53.132;6.394;2023-02-28T08:00:40;15.63;;;9.07;;
52208;SDS011;38507;53.132;6.394;2023-02-28T08:03:06;17.13;;;9.43;;
52208;SDS011;38507;53.132;6.394;2023-02-28T08:05:37;16.25;;;8.93;;
52208;SDS011;38507;53.132;6.394;2023-02-28T08:08:04;18.60;;;10.30;;
52208;SDS011;38507;53.132;6.394;2023-02-28T08:10:29;18.10;;;8.30;;
52208;SDS011;38507;53.132;6.394;2023-02-28T08:12:55;12.85;;;9.35;;
52208;SDS011;38507;53.132;6.394;2023-02-28T08:15:21;15.35;;;9.35;;
52208;SDS011;38507;53.132;6.394;2023-02-28T08:17:46;19.38;;;9.95;;
52208;SDS011;38507;53.132;6.394;2023-02-28T08:20:12;15.98;;;9.48;;
52208;SDS011;38507;53.132;6.394;2023-02-28T08:22:38;17.80;;;10.05;;
52208;SDS011;38507;53.132;6.394;2023-02-28T08:25:04;19.38;;;9.40;;
52208;SDS011;38507;53.132;6.394;2023-02-28T08:27:32;17.40;;;10.43;;
52208;SDS011;38507;53.132;6.394;2023-02-28T08:29:57;17.05;;;9.82;;
52208;SDS011;38507;53.132;6.394;2023-02-28T08:32:23;14.85;;;9.48;;
52208;SDS011;38507;53.132;6.394;2023-02-28T08:34:49;16.05;;;9.73;;
52208;SDS011;38507;53.132;6.394;2023-02-28T08:37:14;13.88;;;9.02;;
52208;SDS011;38507;53.132;6.394;2023-02-28T08:39:40;14.38;;;9.30;;
52208;SDS011;38507;53.132;6.394;2023-02-28T08:42:06;16.40;;;9.68;;
52208;SDS011;38507;53.132;6.394;2023-02-28T08:44:31;19.02;;;10.35;;
52208;SDS011;38507;53.132;6.394;2023-02-28T08:46:57;15.75;;;9.73;;
52208;SDS011;38507;53.132;6.394;2023-02-28T08:49:23;16.58;;;9.82;;
52208;SDS011;38507;53.132;6.394;2023-02-28T08:51:48;14.65;;;9.65;;
52208;SDS011;38507;53.132;6.394;2023-02-28T08:54:14;19.83;;;9.25;;
52208;SDS011;38507;53.132;6.394;2023-02-28T08:56:44;15.98;;;9.00;;
52208;SDS011;38507;53.132;6.394;2023-02-28T08:59:12;14.35;;;8.73;;
52208;SDS011;38507;53.132;6.394;2023-02-28T09:01:38;18.98;;;9.75;;
52208;SDS011;38507;53.132;6.394;2023-02-28T09:04:04;14.57;;;9.85;;
52208;SDS011;38507;53.132;6.394;2023-02-28T09:06:32;14.43;;;9.60;;
52208;SDS011;38507;53.132;6.394;2023-02-28T09:08:58;14.48;;;9.18;;
52208;SDS011;38507;53.132;6.394;2023-02-28T09:11:24;17.23;;;9.10;;
52208;SDS011;38507;53.132;6.394;2023-02-28T09:13:50;16.17;;;9.18;;
52208;SDS011;38507;53.132;6.394;2023-02-28T09:16:16;17.77;;;9.50;;
52208;SDS011;38507;53.132;6.394;2023-02-28T09:18:42;17.95;;;9.55;;
52208;SDS011;38507;53.132;6.394;2023-02-28T09:21:10;15.85;;;9.80;;
52208;SDS011;38507;53.132;6.394;2023-02-28T09:23:39;15.13;;;9.25;;
52208;SDS011;38507;53.132;6.394;2023-02-28T09:26:05;17.08;;;10.70;;
52208;SDS011;38507;53.132;6.394;2023-02-28T09:28:31;15.48;;;9.55;;
52208;SDS011;38507;53.132;6.394;2023-02-28T09:30:57;16.48;;;9.63;;
52208;SDS011;38507;53.132;6.394;2023-02-28T09:33:24;15.52;;;9.18;;
52208;SDS011;38507;53.132;6.394;2023-02-28T09:35:49;16.95;;;10.07;;
52208;SDS011;38507;53.132;6.394;2023-02-28T09:38:16;16.20;;;9.60;;
52208;SDS011;38507;53.132;6.394;2023-02-28T09:40:47;16.63;;;9.80;;
52208;SDS011;38507;53.132;6.394;2023-02-28T09:43:16;17.40;;;10.20;;
52208;SDS011;38507;53.132;6.394;2023-02-28T09:46:02;16.48;;;9.80;;
52208;SDS011;38507;53.132;6.394;2023-02-28T09:48:35;16.35;;;9.32;;
52208;SDS011;38507;53.132;6.394;2023-02-28T09:53:47;17.00;;;9.90;;
52208;SDS011;38507;53.132;6.394;2023-02-28T09:56:15;17.45;;;10.00;;
52208;SDS011;38507;53.132;6.394;2023-02-28T10:01:45;13.23;;;8.60;;
52208;SDS011;38507;53.132;6.394;2023-02-28T10:04:41;16.13;;;8.90;;
52208;SDS011;38507;53.132;6.394;2023-02-28T10:07:23;13.00;;;8.98;;
52208;SDS011;38507;53.132;6.394;2023-02-28T10:09:56;16.40;;;9.05;;
52208;SDS011;38507;53.132;6.394;2023-02-28T10:14:54;12.40;;;7.43;;
52208;SDS011;38507;53.132;6.394;2023-02-28T10:17:26;12.35;;;7.40;;
52208;SDS011;38507;53.132;6.394;2023-02-28T10:20:03;11.98;;;7.35;;
52208;SDS011;38507;53.132;6.394;2023-02-28T10:25:26;15.40;;;7.47;;
52208;SDS011;38507;53.132;6.394;2023-02-28T10:27:53;9.50;;;6.32;;
52208;SDS011;38507;53.132;6.394;2023-02-28T10:30:30;9.02;;;6.38;;
52208;SDS011;38507;53.132;6.394;2023-02-28T10:32:56;9.80;;;5.82;;
52208;SDS011;38507;53.132;6.394;2023-02-28T10:35:23;11.65;;;6.35;;
52208;SDS011;38507;53.132;6.394;2023-02-28T10:38:00;12.85;;;6.88;;
52208;SDS011;38507;53.132;6.394;2023-02-28T10:40:35;10.35;;;5.50;;
52208;SDS011;38507;53.132;6.394;2023-02-28T10:45:28;9.10;;;5.13;;
52208;SDS011;38507;53.132;6.394;2023-02-28T10:50:32;8.18;;;5.10;;
52208;SDS011;38507;53.132;6.394;2023-02-28T10:56:01;7.75;;;3.95;;
52208;SDS011;38507;53.132;6.394;2023-02-28T10:58:48;10.82;;;4.40;;
52208;SDS011;38507;53.132;6.394;2023-02-28T11:01:26;9.43;;;4.03;;
52208;SDS011;38507;53.132;6.394;2023-02-28T11:07:06;9.15;;;4.18;;
52208;SDS011;38507;53.132;6.394;2023-02-28T11:09:36;7.00;;;4.20;;
52208;SDS011;38507;53.132;6.394;2023-02-28T11:12:05;9.13;;;4.85;;
52208;SDS011;38507;53.132;6.394;2023-02-28T11:14:40;10.50;;;4.38;;
52208;SDS011;38507;53.132;6.394;2023-02-28T11:17:23;6.00;;;3.90;;
52208;SDS011;38507;53.132;6.394;2023-02-28T11:19:53;7.35;;;3.63;;
52208;SDS011;38507;53.132;6.394;2023-02-28T11:22:25;10.55;;;4.47;;
52208;SDS011;38507;53.132;6.394;2023-02-28T11:25:03;6.60;;;3.63;;
52208;SDS011;38507;53.132;6.394;2023-02-28T11:27:48;5.82;;;3.58;;
52208;SDS011;38507;53.132;6.394;2023-02-28T11:30:34;7.00;;;3.67;;
52208;SDS011;38507;53.132;6.394;2023-02-28T11:33:18;7.20;;;4.10;;
52208;SDS011;38507;53.132;6.394;2023-02-28T11:35:48;11.82;;;3.42;;
52208;SDS011;38507;53.132;6.394;2023-02-28T11:38:15;6.35;;;3.47;;
52208;SDS011;38507;53.132;6.394;2023-02-28T11:41:02;7.00;;;2.83;;
52208;SDS011;38507;53.132;6.394;2023-02-28T11:43:39;5.75;;;3.22;;
52208;SDS011;38507;53.132;6.394;2023-02-28T11:51:47;7.47;;;3.05;;
52208;SDS011;38507;53.132;6.394;2023-02-28T11:57:32;4.90;;;2.63;;
52208;SDS011;38507;53.132;6.394;2023-02-28T12:28:31;5.40;;;2.78;;
52208;SDS011;38507;53.132;6.394;2023-02-28T12:31:04;8.88;;;4.40;;
52208;SDS011;38507;53.132;6.394;2023-02-28T12:33:36;6.60;;;2.70;;
52208;SDS011;38507;53.132;6.394;2023-02-28T12:36:09;7.30;;;2.95;;
52208;SDS011;38507;53.132;6.394;2023-02-28T12:38:43;5.10;;;3.20;;
52208;SDS011;38507;53.132;6.394;2023-02-28T12:41:15;5.93;;;3.20;;
52208;SDS011;38507;53.132;6.394;2023-02-28T12:43:44;4.65;;;3.20;;
52208;SDS011;38507;53.132;6.394;2023-02-28T12:46:24;6.63;;;3.65;;
52208;SDS011;38507;53.132;6.394;2023-02-28T12:48:56;6.07;;;3.17;;
52208;SDS011;38507;53.132;6.394;2023-02-28T12:51:22;6.00;;;3.15;;
52208;SDS011;38507;53.132;6.394;2023-02-28T12:53:54;5.25;;;2.90;;
52208;SDS011;38507;53.132;6.394;2023-02-28T12:59:30;4.43;;;3.05;;
52208;SDS011;38507;53.132;6.394;2023-02-28T13:10:02;9.77;;;4.00;;
52208;SDS011;38507;53.132;6.394;2023-02-28T13:12:31;7.90;;;3.78;;
52208;SDS011;38507;53.132;6.394;2023-02-28T13:15:17;6.55;;;3.63;;
52208;SDS011;38507;53.132;6.394;2023-02-28T13:17:52;6.78;;;3.80;;
52208;SDS011;38507;53.132;6.394;2023-02-28T13:20:21;6.22;;;4.10;;
52208;SDS011;38507;53.132;6.394;2023-02-28T13:22:52;5.43;;;3.28;;
52208;SDS011;38507;53.132;6.394;2023-02-28T13:27:57;6.32;;;3.50;;
52208;SDS011;38507;53.132;6.394;2023-02-28T13:36:11;5.68;;;3.10;;
52208;SDS011;38507;53.132;6.394;2023-02-28T13:39:02;8.02;;;3.65;;
52208;SDS011;38507;53.132;6.394;2023-02-28T13:41:48;6.22;;;3.63;;
52208;SDS011;38507;53.132;6.394;2023-02-28T13:54:23;6.10;;;3.28;;
52208;SDS011;38507;53.132;6.394;2023-02-28T13:59:46;6.00;;;3.28;;
52208;SDS011;38507;53.132;6.394;2023-02-28T14:07:32;5.55;;;3.10;;
52208;SDS011;38507;53.132;6.394;2023-02-28T14:10:06;5.10;;;3.35;;
52208;SDS011;38507;53.132;6.394;2023-02-28T14:18:19;8.43;;;4.00;;
52208;SDS011;38507;53.132;6.394;2023-02-28T14:20:47;5.85;;;3.92;;
52208;SDS011;38507;53.132;6.394;2023-02-28T14:32:03;7.38;;;3.67;;
52208;SDS011;38507;53.132;6.394;2023-02-28T14:34:48;7.10;;;4.10;;
52208;SDS011;38507;53.132;6.394;2023-02-28T14:37:31;6.32;;;3.78;;
52208;SDS011;38507;53.132;6.394;2023-02-28T14:40:01;6.97;;;3.72;;
52208;SDS011;38507;53.132;6.394;2023-02-28T14:42:33;8.27;;;4.43;;
52208;SDS011;38507;53.132;6.394;2023-02-28T14:45:00;8.20;;;4.05;;
52208;SDS011;38507;53.132;6.394;2023-02-28T14:47:33;8.48;;;4.28;;
52208;SDS011;38507;53.132;6.394;2023-02-28T14:50:00;8.87;;;3.77;;
52208;SDS011;38507;53.132;6.394;2023-02-28T14:52:29;7.63;;;3.83;;
52208;SDS011;38507;53.132;6.394;2023-02-28T14:55:09;5.35;;;3.60;;
52208;SDS011;38507;53.132;6.394;2023-02-28T14:57:40;8.20;;;3.53;;
52208;SDS011;38507;53.132;6.394;2023-02-28T15:00:16;8.00;;;4.18;;
52208;SDS011;38507;53.132;6.394;2023-02-28T15:02:53;8.40;;;4.80;;
52208;SDS011;38507;53.132;6.394;2023-02-28T15:05:30;7.53;;;3.85;;
52208;SDS011;38507;53.132;6.394;2023-02-28T15:08:14;5.65;;;3.75;;
52208;SDS011;38507;53.132;6.394;2023-02-28T15:11:00;5.88;;;4.13;;
52208;SDS011;38507;53.132;6.394;2023-02-28T15:13:35;8.88;;;4.15;;
52208;SDS011;38507;53.132;6.394;2023-02-28T15:16:12;8.35;;;5.00;;
52208;SDS011;38507;53.132;6.394;2023-02-28T15:21:33;12.13;;;4.88;;
52208;SDS011;38507;53.132;6.394;2023-02-28T15:24:05;8.20;;;4.35;;
52208;SDS011;38507;53.132;6.394;2023-02-28T15:26:56;6.65;;;4.07;;
52208;SDS011;38507;53.132;6.394;2023-02-28T15:29:25;8.13;;;4.13;;
52208;SDS011;38507;53.132;6.394;2023-02-28T15:32:04;6.75;;;4.20;;
52208;SDS011;38507;53.132;6.394;2023-02-28T15:34:36;6.43;;;4.15;;
52208;SDS011;38507;53.132;6.394;2023-02-28T15:37:01;7.72;;;3.80;;
52208;SDS011;38507;53.132;6.394;2023-02-28T15:39:31;9.30;;;4.72;;
52208;SDS011;38507;53.132;6.394;2023-02-28T15:42:19;6.00;;;4.07;;
52208;SDS011;38507;53.132;6.394;2023-02-28T15:44:47;6.15;;;3.58;;
52208;SDS011;38507;53.132;6.394;2023-02-28T15:47:20;8.05;;;4.03;;
52208;SDS011;38507;53.132;6.394;2023-02-28T15:49:49;7.57;;;4.10;;
52208;SDS011;38507;53.132;6.394;2023-02-28T15:52:19;7.32;;;4.20;;
52208;SDS011;38507;53.132;6.394;2023-02-28T15:55:27;11.45;;;4.43;;
52208;SDS011;38507;53.132;6.394;2023-02-28T15:57:54;10.00;;;5.43;;
52208;SDS011;38507;53.132;6.394;2023-02-28T16:00:24;10.02;;;5.63;;
52208;SDS011;38507;53.132;6.394;2023-02-28T16:02:51;7.80;;;4.97;;
52208;SDS011;38507;53.132;6.394;2023-02-28T16:05:24;8.88;;;5.70;;
52208;SDS011;38507;53.132;6.394;2023-02-28T16:07:55;8.98;;;4.30;;
52208;SDS011;38507;53.132;6.394;2023-02-28T16:10:22;7.47;;;4.65;;
52208;SDS011;38507;53.132;6.394;2023-02-28T16:12:55;8.77;;;4.53;;
52208;SDS011;38507;53.132;6.394;2023-02-28T16:15:24;7.13;;;3.88;;
52208;SDS011;38507;53.132;6.394;2023-02-28T16:17:52;6.38;;;4.50;;
52208;SDS011;38507;53.132;6.394;2023-02-28T16:20:20;6.32;;;4.28;;
52208;SDS011;38507;53.132;6.394;2023-02-28T16:25:24;9.25;;;4.70;;
52208;SDS011;38507;53.132;6.394;2023-02-28T16:27:58;8.60;;;4.82;;
52208;SDS011;38507;53.132;6.394;2023-02-28T16:30:26;8.40;;;5.20;;
52208;SDS011;38507;53.132;6.394;2023-02-28T16:32:56;6.97;;;4.70;;
52208;SDS011;38507;53.132;6.394;2023-02-28T16:35:22;9.23;;;5.28;;
52208;SDS011;38507;53.132;6.394;2023-02-28T16:37:50;7.75;;;5.10;;
52208;SDS011;38507;53.132;6.394;2023-02-28T16:40:16;8.68;;;4.97;;
52208;SDS011;38507;53.132;6.394;2023-02-28T16:42:45;8.82;;;5.22;;
52208;SDS011;38507;53.132;6.394;2023-02-28T16:45:21;9.02;;;4.95;;
52208;SDS011;38507;53.132;6.394;2023-02-28T16:47:48;9.70;;;5.43;;
52208;SDS011;38507;53.132;6.394;2023-02-28T16:50:18;7.95;;;4.85;;
52208;SDS011;38507;53.132;6.394;2023-02-28T16:52:48;8.40;;;4.97;;
52208;SDS011;38507;53.132;6.394;2023-02-28T16:55:14;9.65;;;5.72;;
52208;SDS011;38507;53.132;6.394;2023-02-28T16:57:40;8.95;;;5.55;;
52208;SDS011;38507;53.132;6.394;2023-02-28T17:00:07;8.25;;;5.97;;
52208;SDS011;38507;53.132;6.394;2023-02-28T17:02:36;8.40;;;5.63;;
52208;SDS011;38507;53.132;6.394;2023-02-28T17:05:02;10.98;;;6.07;;
52208;SDS011;38507;53.132;6.394;2023-02-28T17:07:28;12.95;;;6.18;;
52208;SDS011;38507;53.132;6.394;2023-02-28T17:09:54;8.93;;;5.85;;
52208;SDS011;38507;53.132;6.394;2023-02-28T17:12:20;10.02;;;5.90;;
52208;SDS011;38507;53.132;6.394;2023-02-28T17:14:45;9.55;;;6.18;;
52208;SDS011;38507;53.132;6.394;2023-02-28T17:17:15;9.75;;;6.47;;
52208;SDS011;38507;53.132;6.394;2023-02-28T17:19:45;12.68;;;6.78;;
52208;SDS011;38507;53.132;6.394;2023-02-28T17:22:10;13.95;;;7.28;;
52208;SDS011;38507;53.132;6.394;2023-02-28T17:24:36;9.38;;;6.72;;
52208;SDS011;38507;53.132;6.394;2023-02-28T17:27:02;12.40;;;7.00;;
52208;SDS011;38507;53.132;6.394;2023-02-28T17:29:28;11.00;;;6.70;;
52208;SDS011;38507;53.132;6.394;2023-02-28T17:31:54;11.48;;;7.30;;
52208;SDS011;38507;53.132;6.394;2023-02-28T17:34:20;11.60;;;7.35;;
52208;SDS011;38507;53.132;6.394;2023-02-28T17:36:47;12.27;;;7.00;;
52208;SDS011;38507;53.132;6.394;2023-02-28T17:39:14;10.85;;;6.63;;
52208;SDS011;38507;53.132;6.394;2023-02-28T17:41:44;12.25;;;7.38;;